Winterport, Maine
Current Conditions -  °F | °C
As of 3:53 PM on Sunday 21 Dec 2014 (Local Time) from KBGR Reporting Station
Broken Clouds Broken Clouds  
Wind Chill: 24°   Ceiling: 18000
Heat Index: 29°   Visibility: 10mi
Dew Point: 25°   Wind: 5mph
Humidity: 85%   Direction: 40°NE
Pressure: 30.34"   Gusts: NA
Location:  44.65°N, 68.86°W
Report Text: KBGR 212053Z 04004KT 10SM FEW034 SCT041 BKN180 M02/M04 A3034 RMK AO2 SLP277 T10171039 52002
Loading
Personal Weather Stations






























Interactive Weather Map New forecast layout! Learn more

10-Day Weather Forecast

Advertisements
Track Severe Weather on mobile